aviador You're here:

CYQZ Decoded Metar

QUESNEL in BC, CANADA
Report Time2018-02-20 13:00:00
UTC Time2018-02-20 13:49:36
Flight Rules lifr LIFR
WindCalm
Visibility9999 m
Phenomena:N/A
Clouds:Overcast 002 Hf
Expected CloudBase > 800 ft AGL from Temp-Dew spread
Ceiling200 ft
Temp-24°C (ISA -35)
Dew Point-26°C (84% RH)
AAT-27.8°C
QNH1024 hPa
Density Alt-3,136 ft
Elevation1,788 ft
Report Wrong Elevation
Raw Report
CYQZ 201300Z AUTO 00000KT 9SM OVC002 M24/M26 A3025 RMK SLP304=

Extra information for CYQZ:More info

Metar Taf Metar & Taf Last 4 Metars F.Rules Stats Wind Profile Meteogram Temp Stats Airport Information Weather charts Add Link Nearby VenuesMetar ALERT Operation Metar Decoded Social comments